Time;durP1;ratioP1;P1;durP2;ratioP2;P2;SDS_P1;SDS_P2;PMS_P1;PMS_P2;Temp;Humidity;BMP_temperature;BMP_pressure;BME280_temperature;BME280_humidity;BME280_pressure;Samples;Min_cycle;Max_cycle;Signal;HPM_P1;HPM_P2
2022/03/10 00:01:21;;;;;;;18.27;12.03;;;;;;;3.52;63.38;102358.47;5073989;28;20028;-36
2022/03/10 00:03:47;;;;;;;19.60;14.57;;;;;;;3.57;62.40;102361.56;5073883;28;20029;-34
2022/03/10 00:06:13;;;;;;;22.20;15.63;;;;;;;3.50;60.85;102358.59;5072841;28;20051;-35
2022/03/10 00:08:38;;;;;;;21.48;15.43;;;;;;;3.38;61.25;102332.22;5073709;28;20039;-35
2022/03/10 00:11:03;;;;;;;18.60;15.17;;;;;;;3.52;61.98;102366.50;5073919;28;20381;-35
2022/03/10 00:13:30;;;;;;;19.23;12.87;;;;;;;3.58;62.09;102371.25;5073963;28;20524;-35
2022/03/10 00:15:56;;;;;;;18.50;14.50;;;;;;;3.34;62.27;102343.19;5073513;28;20035;-35
2022/03/10 00:18:22;;;;;;;17.80;14.23;;;;;;;3.56;61.43;102374.09;5073086;28;20515;-35
2022/03/10 00:20:47;;;;;;;16.27;12.63;;;;;;;3.50;63.40;102371.16;5073699;28;20032;-35
2022/03/10 00:23:12;;;;;;;22.97;15.50;;;;;;;3.44;61.63;102359.22;5073537;28;20086;-35
2022/03/10 00:25:38;;;;;;;19.83;14.00;;;;;;;3.50;62.03;102371.16;5073483;28;20465;-35
2022/03/10 00:28:03;;;;;;;18.40;13.93;;;;;;;3.43;62.17;102365.56;5073402;28;20024;-35
2022/03/10 00:30:29;;;;;;;19.35;13.13;;;;;;;3.39;61.63;102366.81;5072436;28;20029;-35
2022/03/10 00:32:54;;;;;;;20.00;13.87;;;;;;;3.23;62.88;102362.09;5073263;28;20032;-34
2022/03/10 00:35:21;;;;;;;19.70;13.30;;;;;;;3.39;62.41;102384.72;5073704;28;20055;-35
2022/03/10 00:37:47;;;;;;;18.40;14.07;;;;;;;3.33;61.98;102372.78;5073139;28;20082;-35
2022/03/10 00:40:13;;;;;;;16.57;12.50;;;;;;;3.40;65.62;102381.88;5073937;28;20032;-35
2022/03/10 00:42:39;;;;;;;15.63;11.38;;;;;;;3.35;63.90;102379.63;5072883;28;20033;-36
2022/03/10 00:45:06;;;;;;;16.17;12.70;;;;;;;3.29;64.69;102372.22;5073196;28;20037;-35
2022/03/10 00:47:32;;;;;;;15.48;11.30;;;;;;;3.40;66.85;102381.88;5071693;28;20044;-35
2022/03/10 00:49:58;;;;;;;;;;;;;;;3.43;62.83;102376.25;5073124;28;20117;-35
2022/03/10 00:52:23;;;;;;;16.10;12.38;;;;;;;3.29;64.70;102372.22;5073303;28;20002;-35
2022/03/10 00:54:48;;;;;;;23.03;14.30;;;;;;;3.30;64.14;102375.72;5073445;28;20376;-35
2022/03/10 00:57:14;;;;;;;18.17;13.70;;;;;;;3.15;62.81;102378.03;5073459;28;20020;-35
2022/03/10 00:59:39;;;;;;;18.60;14.53;;;;;;;3.19;63.94;102384.78;5073094;28;20409;-35
2022/03/10 01:02:04;;;;;;;18.37;14.40;;;;;;;3.16;63.64;102384.22;5073482;28;20449;-35
2022/03/10 01:04:30;;;;;;;21.27;15.20;;;;;;;3.05;63.16;102385.22;5073239;28;20028;-35
2022/03/10 01:06:55;;;;;;;20.23;14.53;;;;;;;2.99;64.50;102381.31;5072902;28;20035;-35
2022/03/10 01:09:20;;;;;;;18.10;14.00;;;;;;;2.94;64.29;102372.03;5072709;28;20029;-35
2022/03/10 01:11:46;;;;;;;20.77;14.63;;;;;;;2.95;64.44;102371.03;5072905;28;20024;-35
2022/03/10 01:14:11;;;;;;;20.17;14.70;;;;;;;2.99;64.11;102383.13;5072844;28;20028;-35
2022/03/10 01:16:36;;;;;;;17.57;13.50;;;;;;;2.99;65.73;102388.47;5072802;28;20135;-35
2022/03/10 01:19:02;;;;;;;19.10;14.47;;;;;;;2.82;64.88;102349.97;5072703;28;20111;-35
2022/03/10 01:21:27;;;;;;;18.17;13.40;;;;;;;2.87;65.30;102354.88;5073312;28;20029;-35
2022/03/10 01:23:53;;;;;;;19.27;14.70;;;;;;;3.03;64.70;102379.19;5072778;28;20479;-35
2022/03/10 01:26:18;;;;;;;24.10;14.90;;;;;;;2.97;65.95;102369.06;5073249;28;20251;-35
2022/03/10 01:28:44;;;;;;;20.00;13.77;;;;;;;3.06;65.60;102374.38;5071744;28;20468;-35
2022/03/10 01:31:09;;;;;;;16.80;13.10;;;;;;;3.02;65.92;102372.97;5074049;28;20468;-35
2022/03/10 01:33:34;;;;;;;20.37;14.43;;;;;;;3.04;66.24;102380.88;5077243;28;20020;-35
2022/03/10 01:36:00;;;;;;;22.23;13.77;;;;;;;2.94;65.41;102354.16;5076853;28;20083;-35
2022/03/10 01:38:25;;;;;;;16.57;12.70;;;;;;;2.96;67.53;102356.69;5076785;28;20109;-35
2022/03/10 01:40:51;;;;;;;17.97;12.93;;;;;;;2.98;66.17;102368.09;5077114;28;20254;-35
2022/03/10 01:43:16;;;;;;;15.70;12.40;;;;;;;3.03;68.04;102368.50;5076501;28;20381;-36
2022/03/10 01:45:41;;;;;;;17.83;13.83;;;;;;;2.96;65.99;102367.38;5076789;28;20078;-35
2022/03/10 01:48:07;;;;;;;18.03;14.27;;;;;;;2.83;65.78;102363.19;5076089;28;20514;-35
2022/03/10 01:50:33;;;;;;;18.85;13.95;;;;;;;2.87;65.49;102371.75;5076444;28;20024;-35
2022/03/10 01:53:00;;;;;;;19.77;14.50;;;;;;;2.88;65.88;102369.91;5076372;28;20036;-35
2022/03/10 01:55:26;;;;;;;19.05;12.88;;;;;;;2.90;67.28;102373.31;5076240;28;20028;-36
2022/03/10 01:57:52;;;;;;;19.97;14.60;;;;;;;2.90;65.68;102367.97;5076254;28;20032;-36
2022/03/10 02:00:17;;;;;;;16.52;12.73;;;;;;;2.96;68.06;102368.22;5076310;28;20259;-35
2022/03/10 02:02:43;;;;;;;18.37;14.00;;;;;;;2.82;67.22;102352.63;5075078;28;20024;-35
2022/03/10 02:05:08;;;;;;;18.40;14.02;;;;;;;2.82;66.47;102366.00;5076016;28;20460;-36
2022/03/10 02:10:18;;;;;;;16.60;12.82;;;;;;;2.81;67.69;102351.78;5076113;28;20094;-35
2022/03/10 02:12:48;;;;;;;19.93;13.70;;;;;;;2.84;66.92;102350.69;5075877;28;20457;-35
2022/03/10 02:17:59;;;;;;;19.85;14.35;;;;;;;2.74;66.21;102361.38;5076086;28;20058;-36
2022/03/10 02:20:24;;;;;;;20.73;14.90;;;;;;;2.74;66.48;102366.72;5076553;28;20437;-35
2022/03/10 02:22:49;;;;;;;20.93;13.83;;;;;;;2.69;67.85;102355.63;5075400;28;20036;-35
2022/03/10 02:25:15;;;;;;;18.70;14.17;;;;;;;2.60;67.30;102350.28;5075783;28;20028;-36
2022/03/10 02:27:41;;;;;;;18.60;12.80;;;;;;;2.69;67.99;102355.63;5075646;28;20039;-35
2022/03/10 02:30:07;;;;;;;19.48;13.85;;;;;;;2.69;70.10;102350.28;5076092;28;20132;-35
2022/03/10 02:32:33;;;;;;;17.75;13.05;;;;;;;2.72;68.75;102359.81;5076017;28;20021;-35
2022/03/10 02:34:59;;;;;;;19.70;13.03;;;;;;;2.69;68.92;102354.78;5075461;28;20125;-35
2022/03/10 02:37:24;;;;;;;16.73;12.80;;;;;;;2.71;70.59;102358.97;5075104;28;20056;-35
2022/03/10 02:39:49;;;;;;;17.10;13.47;;;;;;;2.56;68.46;102358.56;5075438;28;20079;-35
2022/03/10 02:42:15;;;;;;;13.93;11.00;;;;;;;2.66;71.28;102371.91;5075709;28;20155;-35
2022/03/10 02:44:45;;;;;;;18.15;12.95;;;;;;;2.61;69.66;102368.84;5075371;28;20107;-35
2022/03/10 02:47:10;;;;;;;19.35;13.98;;;;;;;2.57;69.35;102362.91;5075088;28;20525;-36
2022/03/10 02:49:37;;;;;;;19.45;14.38;;;;;;;2.59;69.04;102360.13;5075585;28;20119;-35
2022/03/10 02:52:05;;;;;;;17.75;13.73;;;;;;;2.55;69.94;102358.72;5075189;28;20029;-35
2022/03/10 02:54:31;;;;;;;17.23;13.43;;;;;;;2.52;69.89;102367.00;5075897;28;20445;-35
2022/03/10 02:56:58;;;;;;;23.63;14.45;;;;;;;2.53;69.38;102360.66;5075092;28;20038;-35
2022/03/10 02:59:23;;;;;;;;;;;;;;;2.60;67.40;102363.63;5076309;28;20027;-35
2022/03/10 03:01:49;;;;;;;17.70;12.70;;;;;;;2.50;70.00;102361.81;5075093;28;20288;-35
2022/03/10 03:04:15;;;;;;;15.40;11.40;;;;;;;2.53;71.79;102366.00;5075044;28;20032;-35
2022/03/10 03:06:40;;;;;;;16.17;12.63;;;;;;;2.48;71.34;102354.91;5075454;28;20035;-35
2022/03/10 03:09:05;;;;;;;19.13;13.40;;;;;;;2.51;70.55;102363.50;5074922;28;20039;-35
2022/03/10 03:11:31;;;;;;;22.53;13.90;;;;;;;2.44;70.08;102366.84;5075116;28;20047;-36
2022/03/10 03:13:56;;;;;;;16.63;12.60;;;;;;;2.48;71.86;102366.44;5074842;28;20460;-35
2022/03/10 03:16:23;;;;;;;17.85;13.55;;;;;;;2.32;70.82;102352.81;5074655;28;20492;-35
2022/03/10 03:18:49;;;;;;;17.92;13.25;;;;;;;2.37;70.88;102363.06;5074404;28;20498;-35
2022/03/10 03:21:14;;;;;;;20.50;13.53;;;;;;;2.27;70.29;102371.91;5073406;28;20119;-35
2022/03/10 03:23:39;;;;;;;16.77;12.37;;;;;;;2.25;73.06;102357.88;5074951;28;20078;-35
2022/03/10 03:26:05;;;;;;;15.53;12.17;;;;;;;2.31;71.86;102378.66;5074639;28;20028;-35
2022/03/10 03:28:30;;;;;;;16.50;13.23;;;;;;;2.17;70.68;102367.56;5074540;28;20078;-35
2022/03/10 03:30:55;;;;;;;17.47;13.53;;;;;;;2.21;72.26;102376.97;5074838;28;20030;-35
2022/03/10 03:33:21;;;;;;;17.63;13.43;;;;;;;2.29;72.45;102379.78;5074653;28;20025;-35
2022/03/10 03:35:47;;;;;;;18.13;13.98;;;;;;;2.19;72.63;102369.09;5074053;28;20024;-35
2022/03/10 03:38:13;;;;;;;19.52;14.20;;;;;;;2.23;72.07;102370.50;5074404;28;20041;-35
2022/03/10 03:40:38;;;;;;;17.15;12.90;;;;;;;2.29;73.46;102380.66;5074616;28;20032;-35
2022/03/10 03:43:04;;;;;;;17.93;13.40;;;;;;;2.25;72.55;102381.91;5074627;28;20038;-35
2022/03/10 03:45:29;;;;;;;23.35;14.80;;;;;;;2.06;70.63;102376.53;5074240;28;20021;-35
2022/03/10 03:47:55;;;;;;;19.57;13.20;;;;;;;2.24;73.26;102380.19;5074072;28;20414;-35
2022/03/10 03:50:21;;;;;;;;;;;;;;;2.25;70.40;102387.25;5074212;28;20449;-35
2022/03/10 03:52:46;;;;;;;20.80;14.63;;;;;;;2.13;70.35;102388.34;5073976;28;20019;-35
2022/03/10 03:55:12;;;;;;;20.43;14.33;;;;;;;2.06;71.12;102381.88;5073027;28;20464;-35
2022/03/10 03:57:38;;;;;;;16.92;13.35;;;;;;;2.16;73.96;102397.91;5073549;28;20392;-35
2022/03/10 04:00:05;;;;;;;18.27;13.57;;;;;;;2.01;71.26;102400.13;5073916;28;20028;-35
2022/03/10 04:02:31;;;;;;;18.67;14.38;;;;;;;2.04;71.72;102407.84;5073300;28;20032;-35
2022/03/10 04:04:56;;;;;;;16.25;13.15;;;;;;;1.92;73.26;102384.94;5074359;28;20040;-36
2022/03/10 04:07:22;;;;;;;18.50;13.13;;;;;;;2.00;71.64;102401.06;5073796;28;20020;-35
2022/03/10 04:09:48;;;;;;;20.38;13.13;;;;;;;2.05;73.96;102401.53;5073938;28;20034;-35
2022/03/10 04:12:13;;;;;;;17.77;13.07;;;;;;;2.06;73.30;102412.06;5073848;28;20373;-35
2022/03/10 04:14:39;;;;;;;17.33;12.77;;;;;;;2.07;75.02;102412.91;5074104;28;20387;-35
2022/03/10 04:17:04;;;;;;;17.83;12.33;;;;;;;2.07;74.96;102402.22;5073432;28;20441;-35
2022/03/10 04:19:29;;;;;;;15.97;12.90;;;;;;;2.06;74.75;102411.22;5074344;28;20074;-35
2022/03/10 04:21:55;;;;;;;16.40;11.20;;;;;;;2.00;76.08;102387.72;5073755;28;20029;-35
2022/03/10 04:24:20;;;;;;;17.47;13.00;;;;;;;2.06;76.50;102405.88;5073397;28;20032;-35
2022/03/10 04:26:45;;;;;;;14.63;11.27;;;;;;;1.98;75.82;102392.38;5073521;28;20071;-35
2022/03/10 04:29:12;;;;;;;17.13;12.60;;;;;;;1.97;74.69;102401.38;5073569;28;20033;-35
2022/03/10 04:31:37;;;;;;;16.60;13.00;;;;;;;1.97;74.98;102398.69;5073584;28;20025;-35
2022/03/10 04:34:04;;;;;;;20.30;14.30;;;;;;;1.98;75.77;102403.06;5073478;28;20087;-35
2022/03/10 04:36:29;;;;;;;16.55;12.82;;;;;;;2.01;76.72;102408.97;5073138;28;20143;-35
2022/03/10 04:38:55;;;;;;;17.75;13.05;;;;;;;1.99;75.55;102400.22;5073600;28;20133;-35
2022/03/10 04:41:20;;;;;;;14.93;12.07;;;;;;;1.99;75.55;102410.91;5073140;28;20108;-35
2022/03/10 04:43:46;;;;;;;18.58;13.50;;;;;;;1.86;75.53;102390.81;5072830;28;20024;-35
2022/03/10 04:46:11;;;;;;;18.20;13.27;;;;;;;1.91;74.83;102404.59;5073191;28;20508;-35
2022/03/10 04:48:36;;;;;;;17.23;13.10;;;;;;;1.96;76.35;102405.88;5073176;28;20040;-35
2022/03/10 04:51:02;;;;;;;18.27;13.70;;;;;;;1.89;75.81;102404.72;5073568;28;20139;-35
2022/03/10 04:53:27;;;;;;;19.47;14.13;;;;;;;1.79;73.47;102406.50;5073081;28;20024;-35
2022/03/10 04:55:52;;;;;;;19.87;14.63;;;;;;;1.79;73.05;102410.00;5073567;28;20027;-35
2022/03/10 04:58:18;;;;;;;17.63;13.30;;;;;;;1.75;74.42;102408.59;5073221;28;20028;-35
2022/03/10 05:00:43;;;;;;;19.37;13.07;;;;;;;1.76;73.55;102409.47;5072668;28;20024;-35
2022/03/10 05:03:09;;;;;;;20.17;14.83;;;;;;;1.68;75.20;102391.44;5072610;28;20028;-35
2022/03/10 05:05:34;;;;;;;16.97;13.43;;;;;;;1.74;75.83;102393.56;5072322;28;20108;-35
2022/03/10 05:07:59;;;;;;;20.57;13.67;;;;;;;1.65;74.28;102386.38;5073206;28;20428;-35
2022/03/10 05:10:25;;;;;;;20.13;14.63;;;;;;;1.67;72.98;102407.59;5073181;28;20476;-35
2022/03/10 05:12:54;;;;;;;19.73;13.17;;;;;;;1.75;75.44;102416.59;5072830;28;20115;-35
2022/03/10 05:15:22;;;;;;;18.83;11.95;;;;;;;1.78;76.49;102415.50;5072692;28;20024;-35
2022/03/10 05:17:48;;;;;;;16.30;12.30;;;;;;;1.78;76.55;102416.31;5072817;28;20033;-35
2022/03/10 05:20:13;;;;;;;19.50;12.93;;;;;;;1.72;75.00;102414.22;5073199;28;20042;-35
2022/03/10 05:22:53;;;;;;;18.60;13.18;;;;;;;1.68;74.95;102404.78;5072749;28;20161;-35
2022/03/10 05:25:20;;;;;;;19.60;13.63;;;;;;;1.61;73.49;102416.97;5073483;28;20029;-35
2022/03/10 05:27:46;;;;;;;16.60;12.30;;;;;;;1.63;75.10;102420.34;5072821;28;20036;-35
2022/03/10 05:30:13;;;;;;;21.45;14.23;;;;;;;1.51;73.44;102414.28;5073057;28;20446;-35
2022/03/10 05:32:39;;;;;;;16.88;13.00;;;;;;;1.52;74.82;102417.78;5072387;28;20055;-36
2022/03/10 05:35:06;;;;;;;19.77;12.95;;;;;;;1.54;75.06;102423.81;5072243;28;20036;-35
2022/03/10 05:37:34;;;;;;;16.83;12.48;;;;;;;1.60;76.03;102423.25;5072009;28;20043;-35
2022/03/10 05:40:00;;;;;;;18.65;13.93;;;;;;;1.34;73.41;102382.88;5072660;28;20113;-35
2022/03/10 05:42:26;;;;;;;21.17;13.45;;;;;;;1.47;74.81;102404.00;5072336;28;20087;-35
2022/03/10 05:44:52;;;;;;;16.85;12.57;;;;;;;1.51;75.24;102410.72;5072666;28;20029;-35
2022/03/10 05:47:17;;;;;;;14.90;11.90;;;;;;;1.46;76.29;102407.63;5072430;28;20125;-35
2022/03/10 05:49:42;;;;;;;17.83;12.57;;;;;;;1.44;76.21;102398.94;5072464;28;20060;-35
2022/03/10 05:52:08;;;;;;;14.13;11.33;;;;;;;1.57;76.42;102418.22;5072387;28;20028;-35
2022/03/10 05:54:33;;;;;;;18.17;13.83;;;;;;;1.46;73.93;102404.97;5072122;28;20021;-35
2022/03/10 05:56:58;;;;;;;18.10;12.07;;;;;;;1.54;76.41;102411.31;5071618;28;20041;-35
2022/03/10 05:59:24;;;;;;;17.13;12.90;;;;;;;1.48;76.60;102405.69;5071464;28;20036;-35
2022/03/10 06:01:49;;;;;;;16.27;12.93;;;;;;;1.52;77.00;102407.13;5072274;28;20032;-35
2022/03/10 06:04:15;;;;;;;20.87;14.00;;;;;;;1.45;76.07;102403.28;5070826;28;20028;-35
2022/03/10 06:06:43;;;;;;;;;;;;;;;1.54;74.64;102405.16;5073145;28;20024;-35
2022/03/10 06:09:09;;;;;;;19.98;13.52;;;;;;;1.38;74.61;102410.13;5072086;28;20390;-35
2022/03/10 06:11:34;;;;;;;22.92;13.80;;;;;;;1.37;72.99;102414.63;5072387;28;20056;-35
2022/03/10 06:13:59;;;;;;;21.13;13.43;;;;;;;1.39;75.41;102414.47;5072846;28;20085;-35
2022/03/10 06:16:26;;;;;;;20.43;13.03;;;;;;;1.37;74.95;102411.13;5072595;28;20457;-35
2022/03/10 06:18:51;;;;;;;20.88;13.38;;;;;;;1.43;75.88;102411.41;5076118;28;20431;-35
2022/03/10 06:21:17;;;;;;;19.17;12.70;;;;;;;1.42;75.62;102414.22;5076221;28;20036;-35
2022/03/10 06:23:42;;;;;;;23.20;13.80;;;;;;;1.30;74.01;102405.44;5075585;28;20344;-35
2022/03/10 06:26:07;;;;;;;22.03;14.90;;;;;;;1.38;73.56;102412.78;5076201;28;20032;-35
2022/03/10 06:28:33;;;;;;;26.67;15.13;;;;;;;1.45;75.27;102419.28;5076188;28;20113;-35
2022/03/10 06:30:58;;;;;;;18.40;12.03;;;;;;;1.51;75.78;102419.59;5076220;28;20021;-35
2022/03/10 06:33:23;;;;;;;16.47;12.23;;;;;;;1.51;75.85;102416.06;5075962;28;20032;-35
2022/03/10 06:35:48;;;;;;;22.73;14.17;;;;;;;1.48;74.29;102413.69;5076108;28;20041;-35
2022/03/10 06:38:14;;;;;;;22.57;14.43;;;;;;;1.59;75.39;102421.59;5074336;28;20048;-35
2022/03/10 06:40:39;;;;;;;21.13;15.10;;;;;;;1.58;73.45;102430.56;5075790;28;20381;-35
2022/03/10 06:43:05;;;;;;;19.67;14.60;;;;;;;1.55;72.95;102429.00;5075254;28;20099;-35
2022/03/10 06:45:31;;;;;;;20.60;14.93;;;;;;;1.63;73.12;102431.00;5076092;28;20025;-34
2022/03/10 06:47:56;;;;;;;;;;;;;;;1.74;72.69;102433.56;5075703;28;20062;-35
2022/03/10 06:50:21;;;;;;;23.67;13.30;;;;;;;1.78;74.40;102437.66;5075316;28;19912;-34
2022/03/10 06:52:47;;;;;;;28.10;14.03;;;;;;;1.72;73.11;102414.22;5075692;28;20294;-34
2022/03/10 06:55:12;;;;;;;21.00;14.32;;;;;;;1.87;72.57;102432.50;5073820;28;20028;-34
2022/03/10 06:57:38;;;;;;;24.43;14.13;;;;;;;1.82;72.39;102419.56;5075225;28;20044;-35
2022/03/10 07:00:05;;;;;;;20.95;13.90;;;;;;;1.96;71.95;102437.03;5075645;28;20099;-35
2022/03/10 07:02:30;;;;;;;;;;;;;;;2.04;70.86;102443.38;5075355;28;20032;-34
2022/03/10 07:04:56;;;;;;;19.75;12.88;;;;;;;2.00;72.25;102433.09;5075466;28;19908;-35
2022/03/10 07:07:21;;;;;;;19.55;13.82;;;;;;;2.12;71.33;102437.34;5074911;28;20067;-34
2022/03/10 07:09:47;;;;;;;20.27;14.27;;;;;;;2.14;70.69;102430.03;5075240;28;20114;-35
2022/03/10 07:12:12;;;;;;;21.17;14.80;;;;;;;2.22;70.51;102438.22;5074811;28;20036;-35
2022/03/10 07:14:37;;;;;;;20.93;13.77;;;;;;;2.32;70.42;102449.75;5075078;28;20032;-35
2022/03/10 07:17:03;;;;;;;21.37;14.50;;;;;;;2.39;69.95;102435.84;5074686;28;20103;-35
2022/03/10 07:19:28;;;;;;;21.92;14.00;;;;;;;2.19;69.46;102406.44;5075232;28;20028;-35
2022/03/10 07:21:54;;;;;;;22.27;14.00;;;;;;;2.37;70.40;102405.78;5074397;28;20488;-35
2022/03/10 07:24:19;;;;;;;22.90;13.67;;;;;;;2.64;69.31;102435.34;5074657;28;20079;-35
2022/03/10 07:26:44;;;;;;;19.27;13.40;;;;;;;2.69;68.52;102430.41;5074590;28;20196;-35
2022/03/10 07:29:10;;;;;;;20.90;14.17;;;;;;;2.74;68.26;102440.69;5073183;28;20020;-35
2022/03/10 07:31:36;;;;;;;21.77;15.35;;;;;;;2.79;69.42;102436.59;5074620;28;20524;-35
2022/03/10 07:34:01;;;;;;;20.87;14.73;;;;;;;2.92;68.34;102446.13;5074478;28;20035;-35
2022/03/10 07:36:27;;;;;;;23.53;14.80;;;;;;;2.95;67.71;102435.19;5075000;28;20035;-35
2022/03/10 07:38:52;;;;;;;21.67;14.75;;;;;;;3.10;68.74;102439.09;5073947;28;20287;-35
2022/03/10 07:41:18;;;;;;;24.30;15.37;;;;;;;3.17;67.17;102439.34;5074294;28;20090;-35
2022/03/10 07:43:43;;;;;;;17.90;13.53;;;;;;;3.28;67.61;102437.38;5073907;28;20457;-35
2022/03/10 07:46:08;;;;;;;23.80;15.43;;;;;;;3.41;67.10;102436.19;5074742;28;20117;-35
2022/03/10 07:48:34;;;;;;;21.73;14.60;;;;;;;3.51;66.18;102432.50;5074175;28;20059;-35
2022/03/10 07:51:00;;;;;;;27.03;14.73;;;;;;;3.59;65.60;102439.81;5073830;28;20477;-35
2022/03/10 07:53:26;;;;;;;31.23;15.00;;;;;;;3.67;66.38;102431.06;5074235;28;20059;-35
2022/03/10 07:55:55;;;;;;;26.83;15.07;;;;;;;3.74;66.33;102433.00;5074274;28;20083;-35
2022/03/10 07:58:25;;;;;;;22.23;15.23;;;;;;;3.86;65.92;102426.47;5073845;28;20513;-35
2022/03/10 08:00:54;;;;;;;20.42;14.55;;;;;;;3.96;65.59;102431.78;5073584;28;20489;-35
2022/03/10 08:03:20;;;;;;;20.45;15.10;;;;;;;4.07;64.25;102434.25;5073440;28;20032;-35
2022/03/10 08:05:46;;;;;;;19.42;14.23;;;;;;;4.19;65.16;102437.56;5074568;28;20056;-35
2022/03/10 08:08:13;;;;;;;23.50;15.50;;;;;;;4.28;65.39;102442.00;5072475;28;20056;-35
2022/03/10 08:10:39;;;;;;;22.23;15.38;;;;;;;4.39;63.74;102435.59;5074427;28;20056;-35
2022/03/10 08:13:04;;;;;;;20.42;14.13;;;;;;;4.49;63.65;102443.56;5073722;28;20103;-35
2022/03/10 08:15:29;;;;;;;19.77;14.80;;;;;;;4.59;63.78;102437.16;5074136;28;20435;-35
2022/03/10 08:17:55;;;;;;;21.53;14.87;;;;;;;4.62;62.53;102423.44;5074053;28;20078;-35
2022/03/10 08:20:20;;;;;;;23.03;14.53;;;;;;;4.76;62.79;102437.31;5073440;28;20027;-35
2022/03/10 08:22:45;;;;;;;21.90;14.77;;;;;;;4.87;63.49;102443.25;5073451;28;20064;-35
2022/03/10 08:25:12;;;;;;;20.70;14.30;;;;;;;4.95;62.63;102437.13;5073171;28;20036;-35
2022/03/10 08:27:37;;;;;;;21.00;14.35;;;;;;;5.00;62.80;102421.41;5073229;28;20106;-42
2022/03/10 08:30:04;;;;;;;19.20;14.07;;;;;;;5.21;62.76;102434.47;5073655;28;20449;-35
2022/03/10 08:32:30;;;;;;;19.95;14.25;;;;;;;5.32;62.27;102431.56;5073896;28;20365;-35
2022/03/10 08:34:55;;;;;;;19.48;13.93;;;;;;;5.35;62.53;102417.81;5073370;28;20103;-35
2022/03/10 08:37:21;;;;;;;19.47;14.63;;;;;;;5.50;61.30;102428.78;5073005;28;20028;-35
2022/03/10 08:39:46;;;;;;;20.57;15.43;;;;;;;5.61;61.53;102424.97;5072758;28;20252;-35
2022/03/10 08:42:12;;;;;;;17.60;14.20;;;;;;;5.76;61.39;102426.09;5073679;28;20457;-35
2022/03/10 08:44:37;;;;;;;18.90;14.50;;;;;;;5.89;60.80;102421.09;5073290;28;20024;-35
2022/03/10 08:47:03;;;;;;;24.27;14.87;;;;;;;6.04;61.20;102423.19;5073193;28;20097;-35
2022/03/10 08:49:28;;;;;;;22.15;14.63;;;;;;;6.10;60.69;102409.13;5073401;28;20510;-35
2022/03/10 08:51:54;;;;;;;19.23;14.17;;;;;;;6.24;60.78;102413.84;5072942;28;20029;-35
2022/03/10 08:54:20;;;;;;;20.05;14.57;;;;;;;6.35;60.40;102418.94;5073107;28;20028;-35
2022/03/10 08:56:45;;;;;;;18.95;13.95;;;;;;;6.41;59.90;102406.69;5073187;28;20024;-35
2022/03/10 08:59:11;;;;;;;20.63;15.20;;;;;;;6.50;59.69;102394.94;5072829;28;20082;-35
2022/03/10 09:01:36;;;;;;;19.90;14.63;;;;;;;6.65;59.11;102405.88;5073493;28;20027;-35
2022/03/10 09:04:02;;;;;;;18.93;14.50;;;;;;;6.70;59.06;102406.22;5072974;28;20153;-35
2022/03/10 09:06:29;;;;;;;18.98;14.90;;;;;;;6.88;59.16;102409.59;5073822;28;20070;-35
2022/03/10 09:08:54;;;;;;;17.67;14.38;;;;;;;7.07;59.37;102410.22;5073098;28;20513;-35
2022/03/10 09:11:19;;;;;;;19.13;14.90;;;;;;;7.20;58.32;102407.88;5073826;28;20107;-35
2022/03/10 09:13:48;;;;;;;22.27;15.93;;;;;;;7.32;58.50;102403.81;5073144;28;20024;-35
2022/03/10 09:16:18;;;;;;;22.02;14.65;;;;;;;7.47;58.02;102402.09;5072871;28;20059;-35
2022/03/10 09:18:45;;;;;;;22.25;15.65;;;;;;;7.51;56.96;102385.56;5072804;28;20396;-35
2022/03/10 09:21:13;;;;;;;21.77;14.68;;;;;;;7.65;58.10;102388.38;5072536;28;20032;-36
2022/03/10 09:23:39;;;;;;;18.27;14.25;;;;;;;7.79;57.24;102380.59;5073370;28;20151;-35
2022/03/10 09:26:04;;;;;;;20.42;14.25;;;;;;;7.93;56.48;102378.00;5073148;28;20056;-35
2022/03/10 09:28:30;;;;;;;18.25;14.27;;;;;;;8.00;55.80;102375.44;5073195;28;20029;-35
2022/03/10 09:30:55;;;;;;;20.87;15.63;;;;;;;8.12;55.54;102365.13;5072522;28;20404;-35
2022/03/10 09:33:21;;;;;;;19.00;13.90;;;;;;;8.27;56.70;102374.94;5072856;28;20029;-35
2022/03/10 09:35:46;;;;;;;21.40;15.30;;;;;;;8.43;56.39;102379.41;5072745;28;20021;-35
2022/03/10 09:38:12;;;;;;;18.55;14.57;;;;;;;8.63;55.92;102371.69;5072814;28;20419;-35
2022/03/10 09:40:37;;;;;;;22.27;15.33;;;;;;;8.74;56.41;102370.44;5071680;28;20457;-35
2022/03/10 09:43:03;;;;;;;21.95;15.18;;;;;;;8.81;53.98;102365.97;5072361;28;20025;-35
2022/03/10 09:45:30;;;;;;;21.95;14.95;;;;;;;9.05;55.52;102364.91;5072710;28;20029;-35
2022/03/10 09:47:56;;;;;;;18.25;14.20;;;;;;;9.11;53.99;102352.53;5072483;28;20033;-35
2022/03/10 09:50:21;;;;;;;20.77;14.95;;;;;;;9.26;52.94;102359.63;5072674;28;20384;-35
2022/03/10 09:52:47;;;;;;;20.90;13.63;;;;;;;9.34;53.13;102358.69;5074986;28;20033;-35
2022/03/10 09:55:16;;;;;;;19.13;13.40;;;;;;;9.42;53.73;102355.91;5076494;28;20056;-35
2022/03/10 09:57:44;;;;;;;22.20;14.60;;;;;;;9.52;52.58;102348.38;5076076;28;20028;-35
2022/03/10 10:00:14;;;;;;;18.13;13.70;;;;;;;9.68;52.37;102351.88;5076113;28;20025;-35
2022/03/10 10:02:40;;;;;;;17.83;14.23;;;;;;;9.74;51.86;102356.53;5076526;28;20028;-35
2022/03/10 10:05:20;;;;;;;;;;;;;;;9.83;52.92;102352.69;5076967;28;20029;-36
2022/03/10 10:08:05;;;;;;;17.05;13.48;;;;;;;9.90;51.76;102350.06;5075849;28;19954;-35
2022/03/10 10:10:32;;;;;;;16.30;13.40;;;;;;;9.99;51.35;102352.47;5076912;28;20078;-36
2022/03/10 10:12:57;;;;;;;18.38;14.15;;;;;;;10.12;52.06;102353.66;5076424;28;20511;-35
2022/03/10 10:15:23;;;;;;;18.02;13.93;;;;;;;10.24;50.88;102349.44;5076126;28;20029;-35
2022/03/10 10:17:57;;;;;;;22.03;14.37;;;;;;;10.31;51.67;102347.66;5076024;28;20141;-35
2022/03/10 10:20:23;;;;;;;19.55;14.20;;;;;;;10.39;51.53;102330.44;5076834;28;20106;-36
2022/03/10 10:22:48;;;;;;;24.23;14.93;;;;;;;10.51;50.01;102340.56;5075962;28;20033;-36
2022/03/10 10:25:20;;;;;;;20.27;13.73;;;;;;;10.57;50.89;102331.66;5076111;28;20025;-36
2022/03/10 10:27:46;;;;;;;19.05;13.68;;;;;;;10.75;49.84;102333.06;5076202;28;20373;-36
2022/03/10 10:30:12;;;;;;;16.55;12.70;;;;;;;10.95;51.66;102334.06;5076005;28;20063;-35
2022/03/10 10:32:52;;;;;;;;;;;;;;;11.04;50.67;102332.88;5076755;28;20025;-36
2022/03/10 10:35:22;;;;;;;18.15;13.25;;;;;;;11.01;48.74;102332.44;5075705;28;19919;-35
2022/03/10 10:37:54;;;;;;;18.23;14.00;;;;;;;11.22;49.09;102313.38;5076071;28;20036;-36
2022/03/10 10:40:22;;;;;;;18.52;13.18;;;;;;;11.29;49.34;102308.03;5076555;28;20059;-36
2022/03/10 10:42:48;;;;;;;18.52;13.18;;;;;;;11.37;49.64;102313.28;5075946;28;20492;-36
2022/03/10 10:45:31;;;;;;;17.05;13.60;;;;;;;11.52;49.78;102315.88;5075809;28;20025;-36
2022/03/10 10:48:02;;;;;;;17.88;13.98;;;;;;;11.55;48.81;102319.00;5075432;28;20024;-36
2022/03/10 10:50:30;;;;;;;18.08;13.68;;;;;;;11.59;48.73;102303.16;5075753;28;20103;-35
2022/03/10 10:52:55;;;;;;;17.23;12.80;;;;;;;11.71;48.72;102315.13;5075374;28;20033;-36
2022/03/10 10:55:20;;;;;;;20.83;15.40;;;;;;;11.84;49.85;102322.47;5075641;28;20024;-36
2022/03/10 10:57:46;;;;;;;17.80;14.37;;;;;;;11.89;48.49;102319.16;5076060;28;20024;-36
2022/03/10 11:00:13;;;;;;;18.50;13.88;;;;;;;11.92;48.29;102308.75;5075841;28;20025;-36
2022/03/10 11:02:44;;;;;;;18.30;13.82;;;;;;;11.98;49.63;102305.22;5074783;28;20020;-36
2022/03/10 11:05:14;;;;;;;23.73;15.50;;;;;;;12.09;47.71;102306.47;5075241;28;20036;-36
2022/03/10 11:07:40;;;;;;;20.27;15.02;;;;;;;12.06;48.38;102287.94;5075409;28;20031;-36
2022/03/10 11:10:08;;;;;;;18.67;14.82;;;;;;;12.27;48.19;102303.19;5075419;28;20025;-36
2022/03/10 11:12:40;;;;;;;16.40;13.93;;;;;;;12.24;47.84;102290.84;5074900;28;20353;-36
2022/03/10 11:15:07;;;;;;;18.45;14.77;;;;;;;12.37;47.21;102309.03;5075391;28;20034;-36
2022/03/10 11:17:34;;;;;;;19.08;15.43;;;;;;;12.50;47.15;102295.47;5074787;28;20024;-36
2022/03/10 11:20:01;;;;;;;18.88;15.65;;;;;;;12.49;46.78;102296.53;5075600;28;20392;-36